Time;durP1;ratioP1;P1;durP2;ratioP2;P2;SDS_P1;SDS_P2;PMS_P1;PMS_P2;Temp;Humidity;BMP_temperature;BMP_pressure;BME280_temperature;BME280_humidity;BME280_pressure;Samples;Min_cycle;Max_cycle;Signal;HPM_P1;HPM_P2
2023/03/27 00:00:58;;;;;;;42.97;24.48;;;11.40;1.00;;;;;;4988510;28;20069;-74
2023/03/27 00:03:29;;;;;;;40.67;23.75;;;11.50;1.00;;;;;;4992877;28;20092;-74
2023/03/27 00:06:00;;;;;;;46.50;26.85;;;11.50;1.00;;;;;;4992410;28;20125;-72
2023/03/27 00:08:28;;;;;;;46.78;29.50;;;11.50;1.00;;;;;;4992314;28;20046;-74
2023/03/27 00:10:56;;;;;;;33.78;20.38;;;11.50;1.00;;;;;;4992933;28;20069;-73
2023/03/27 00:13:24;;;;;;;16.30;8.80;;;11.60;1.00;;;;;;4990708;28;20117;-72
2023/03/27 00:15:54;;;;;;;26.65;14.30;;;11.70;99.90;;;;;;4995386;28;20042;-72
2023/03/27 00:18:21;;;;;;;27.20;15.55;;;11.80;1.00;;;;;;4996926;28;20054;-73
2023/03/27 00:20:51;;;;;;;28.35;17.10;;;11.80;99.90;;;;;;4992575;28;20046;-77
2023/03/27 00:23:19;;;;;;;32.60;21.08;;;11.80;1.00;;;;;;4991930;28;20046;-74
2023/03/27 00:25:48;;;;;;;31.35;17.40;;;11.90;1.00;;;;;;5006553;28;20053;-73
2023/03/27 00:28:16;;;;;;;29.08;17.13;;;11.90;36.20;;;;;;4991723;28;20049;-72
2023/03/27 00:30:45;;;;;;;33.33;19.25;;;11.90;1.00;;;;;;4990179;28;20050;-73
2023/03/27 00:33:13;;;;;;;26.77;17.77;;;11.90;1.00;;;;;;4987360;28;20145;-72
2023/03/27 00:35:45;;;;;;;29.83;17.85;;;11.90;1.00;;;;;;4991279;28;20038;-74
2023/03/27 00:38:15;;;;;;;28.30;16.98;;;11.90;1.00;;;;;;4991097;28;20053;-74
2023/03/27 00:40:43;;;;;;;25.30;17.02;;;11.90;1.00;;;;;;4989531;28;20059;-73
2023/03/27 00:43:25;;;;;;;28.80;18.05;;;11.90;1.00;;;;;;4990950;28;20054;-73
2023/03/27 00:45:56;;;;;;;33.30;21.25;;;11.90;1.00;;;;;;4990152;28;20046;-73
2023/03/27 00:48:25;;;;;;;33.88;20.05;;;11.90;1.00;;;;;;5005355;28;20054;-74
2023/03/27 00:50:53;;;;;;;27.00;18.38;;;11.90;1.00;;;;;;4990651;28;20144;-73
2023/03/27 00:53:27;;;;;;;29.05;16.10;;;11.90;1.00;;;;;;4989160;28;20435;-72
2023/03/27 00:55:58;;;;;;;25.25;16.30;;;12.00;99.90;;;;;;4991333;28;20422;-72
2023/03/27 00:58:29;;;;;;;25.35;16.10;;;12.00;1.00;;;;;;5005551;28;20062;-72
2023/03/27 01:00:57;;;;;;;24.33;15.95;;;12.20;1.00;;;;;;4989790;28;20406;-72
2023/03/27 01:03:29;;;;;;;20.67;12.80;;;12.40;1.00;;;;;;4987905;28;20537;-74
2023/03/27 01:06:00;;;;;;;26.90;15.98;;;12.40;1.00;;;;;;5005819;28;20046;-73
2023/03/27 01:08:31;;;;;;;24.58;16.00;;;12.50;72.20;;;;;;4997481;23;20054;-74
2023/03/27 01:11:10;;;;;;;25.38;14.60;;;12.40;99.90;;;;;;4981441;28;20049;-75
2023/03/27 01:13:51;;;;;;;23.13;13.40;;;12.20;1.00;;;;;;4994509;28;20138;-74
2023/03/27 01:16:24;;;;;;;21.52;12.88;;;12.10;1.00;;;;;;4997358;28;20039;-73
2023/03/27 01:19:09;;;;;;;20.92;12.80;;;12.10;1.00;;;;;;4994842;28;20049;-74
2023/03/27 01:22:02;;;;;;;19.15;11.88;;;12.10;1.00;;;;;;4981105;28;20669;-75
2023/03/27 01:25:07;;;;;;;17.85;11.50;;;12.10;1.00;;;;;;4974709;28;20046;-74
2023/03/27 01:28:03;;;;;;;16.65;9.60;;;12.00;17.20;;;;;;4961121;28;20053;-75
2023/03/27 01:30:35;;;;;;;20.38;11.90;;;12.10;1.00;;;;;;4986765;28;20042;-74
2023/03/27 01:33:31;;;;;;;16.75;10.93;;;12.10;1.00;;;;;;4991572;28;20141;-75
2023/03/27 01:36:34;;;;;;;18.17;9.50;;;12.10;99.90;;;;;;4983730;28;20078;-74
2023/03/27 01:39:20;;;;;;;15.68;8.15;;;12.10;1.00;;;;;;4979490;28;20081;-74
2023/03/27 01:41:55;;;;;;;16.48;9.73;;;12.20;1.00;;;;;;4994213;28;20042;-74
2023/03/27 01:44:32;;;;;;;18.30;10.77;;;12.20;99.90;;;;;;4994444;28;20121;-72
2023/03/27 01:47:03;;;;;;;19.20;11.07;;;12.20;1.00;;;;;;4981743;28;20054;-74
2023/03/27 01:49:34;;;;;;;17.90;11.23;;;12.10;1.00;;;;;;4977837;28;20049;-75
2023/03/27 01:52:06;;;;;;;17.98;11.55;;;12.00;99.90;;;;;;4976161;28;20042;-73
2023/03/27 01:54:38;;;;;;;18.65;11.05;;;12.00;99.90;;;;;;4966589;28;20039;-73
2023/03/27 01:57:16;;;;;;;18.27;11.82;;;12.00;1.00;;;;;;4979576;28;20054;-75
2023/03/27 01:59:48;;;;;;;21.27;12.45;;;12.00;99.90;;;;;;4977402;28;20054;-74
2023/03/27 02:02:22;;;;;;;22.23;11.13;;;12.00;99.90;;;;;;4986051;28;20597;-74
2023/03/27 02:04:54;;;;;;;20.25;12.02;;;12.00;99.90;;;;;;4993263;28;20045;-72
2023/03/27 02:07:30;;;;;;;22.98;12.45;;;12.00;1.00;;;;;;4978421;28;20042;-72
2023/03/27 02:10:02;;;;;;;18.45;10.18;;;12.00;1.00;;;;;;4994033;28;20404;-75
2023/03/27 02:12:33;;;;;;;19.10;10.80;;;12.00;1.00;;;;;;4977585;28;20071;-74
2023/03/27 02:15:06;;;;;;;22.02;10.65;;;12.00;99.90;;;;;;4977469;28;20042;-75
2023/03/27 02:17:37;;;;;;;15.25;9.75;;;12.00;99.90;;;;;;4994566;28;20058;-76
2023/03/27 02:20:13;;;;;;;20.13;9.55;;;12.10;1.00;;;;;;4974833;28;20039;-74
2023/03/27 02:22:41;;;;;;;13.45;8.38;;;12.20;1.00;;;;;;4974513;28;20046;-74
2023/03/27 02:25:28;;;;;;;11.68;7.90;;;12.40;1.00;;;;;;4978397;28;20042;-73
2023/03/27 02:28:09;;;;;;;14.50;7.38;;;12.50;99.90;;;;;;4987480;28;20104;-74
2023/03/27 02:30:45;;;;;;;15.63;7.25;;;12.70;99.90;;;;;;5011102;28;20113;-74
2023/03/27 02:33:17;;;;;;;;;;;12.80;1.00;;;;;;4997113;28;20035;-74
2023/03/27 02:35:53;;;;;;;12.13;7.65;;;12.90;99.90;;;;;;4978468;28;19921;-75
2023/03/27 02:38:30;;;;;;;14.07;8.43;;;13.10;99.90;;;;;;4978179;28;20134;-73
2023/03/27 02:41:09;;;;;;;13.95;7.50;;;13.20;1.00;;;;;;4995588;28;20085;-75
2023/03/27 02:43:55;;;;;;;12.07;7.43;;;13.30;1.00;;;;;;4979758;28;20047;-72
2023/03/27 02:46:43;;;;;;;12.90;6.38;;;13.30;1.00;;;;;;4973361;28;20512;-73
2023/03/27 02:49:16;;;;;;;13.48;4.97;;;13.30;99.90;;;;;;4974369;28;20133;-74
2023/03/27 02:51:49;;;;;;;16.13;4.70;;;13.20;99.90;;;;;;4993537;28;20043;-75
2023/03/27 02:54:22;;;;;;;10.20;4.13;;;13.00;99.90;;;;;;4994876;28;20047;-73
2023/03/27 02:56:56;;;;;;;13.88;4.70;;;12.70;99.90;;;;;;5004199;28;20027;-76
2023/03/27 02:59:34;;;;;;;13.18;4.80;;;12.10;99.90;;;;;;4978442;28;20129;-74
2023/03/27 03:02:05;;;;;;;9.70;4.82;;;11.40;99.90;;;;;;4992854;28;20046;-74
2023/03/27 03:04:44;;;;;;;8.55;4.70;;;11.00;99.90;;;;;;4994099;28;20046;-74
2023/03/27 03:07:36;;;;;;;9.90;4.68;;;10.80;99.90;;;;;;4978083;28;20055;-72
2023/03/27 03:10:05;;;;;;;11.43;4.97;;;10.60;99.90;;;;;;4977705;28;20049;-74
2023/03/27 03:12:35;;;;;;;11.30;4.75;;;10.60;99.90;;;;;;4975914;28;20046;-74
2023/03/27 03:15:02;;;;;;;10.05;4.32;;;10.50;99.90;;;;;;4991951;28;20054;-73
2023/03/27 03:17:31;;;;;;;10.23;4.53;;;10.40;99.90;;;;;;4994641;28;20053;-74
2023/03/27 03:19:58;;;;;;;9.68;4.20;;;10.50;99.90;;;;;;4975681;28;20046;-73
2023/03/27 03:22:27;;;;;;;9.05;4.30;;;10.50;99.90;;;;;;4974101;28;20046;-75
2023/03/27 03:24:54;;;;;;;11.55;4.65;;;10.40;99.90;;;;;;4965890;28;20636;-74
2023/03/27 03:27:28;;;;;;;11.45;4.72;;;10.40;99.90;;;;;;4973019;28;20043;-74
2023/03/27 03:30:18;;;;;;;10.25;5.45;;;10.40;99.90;;;;;;4962899;28;20059;-74
2023/03/27 03:32:59;;;;;;;8.98;4.95;;;10.40;99.90;;;;;;4977332;28;20056;-74
2023/03/27 03:35:27;;;;;;;10.30;5.20;;;10.40;99.90;;;;;;4978109;28;20633;-73
2023/03/27 03:37:58;;;;;;;10.43;5.25;;;10.40;99.90;;;;;;4981408;28;20050;-75
2023/03/27 03:40:26;;;;;;;11.85;5.35;;;10.30;99.90;;;;;;4997813;28;20043;-74
2023/03/27 03:42:57;;;;;;;13.27;5.90;;;10.30;99.90;;;;;;4978571;28;20050;-74
2023/03/27 03:45:30;;;;;;;9.90;5.93;;;10.20;99.90;;;;;;4987597;28;20062;-74
2023/03/27 03:47:57;;;;;;;12.43;6.65;;;10.10;99.90;;;;;;4963320;28;20039;-73
2023/03/27 03:50:25;;;;;;;13.45;6.75;;;10.10;99.90;;;;;;4995110;28;20208;-74
2023/03/27 03:52:52;;;;;;;14.05;6.15;;;10.00;99.90;;;;;;4992244;28;20042;-74
2023/03/27 03:55:20;;;;;;;12.48;6.32;;;10.00;99.90;;;;;;4990406;28;20479;-74
2023/03/27 03:57:48;;;;;;;13.65;7.63;;;9.90;99.90;;;;;;4969073;28;20043;-73
2023/03/27 04:00:24;;;;;;;14.15;8.57;;;9.90;99.90;;;;;;4965024;28;20042;-74
2023/03/27 04:02:55;;;;;;;16.33;9.15;;;9.90;99.90;;;;;;4978702;28;20517;-73
2023/03/27 04:05:26;;;;;;;16.63;9.77;;;10.00;99.90;;;;;;4995517;28;20133;-73
2023/03/27 04:07:58;;;;;;;14.70;10.13;;;10.00;99.90;;;;;;4995372;28;20056;-73
2023/03/27 04:10:36;;;;;;;17.30;10.25;;;10.00;99.90;;;;;;4985548;28;20042;-73
2023/03/27 04:13:07;;;;;;;21.75;12.18;;;10.10;99.90;;;;;;4974002;28;20047;-74
2023/03/27 04:15:39;;;;;;;14.38;9.30;;;10.10;99.90;;;;;;4966622;28;20042;-73
2023/03/27 04:18:08;;;;;;;18.83;12.98;;;10.00;99.90;;;;;;4978444;28;20049;-73
2023/03/27 04:20:38;;;;;;;19.25;11.95;;;10.00;99.90;;;;;;4981474;28;20062;-72
2023/03/27 04:23:08;;;;;;;18.15;10.43;;;10.00;99.90;;;;;;4980183;28;20054;-73
2023/03/27 04:25:38;;;;;;;15.45;11.45;;;9.90;99.90;;;;;;4979899;28;20045;-75
2023/03/27 04:28:15;;;;;;;17.58;12.00;;;10.00;99.90;;;;;;4999630;28;20434;-73
2023/03/27 04:30:49;;;;;;;23.95;13.95;;;10.00;99.90;;;;;;4983880;28;20126;-73
2023/03/27 04:33:45;;;;;;;18.52;12.65;;;10.00;99.90;;;;;;4982000;28;20553;-75
2023/03/27 04:36:36;;;;;;;21.90;14.82;;;10.00;99.90;;;;;;4980268;28;20042;-74
2023/03/27 04:39:10;;;;;;;16.02;11.50;;;9.90;99.90;;;;;;4981596;28;20045;-75
2023/03/27 04:41:37;;;;;;;13.75;9.63;;;9.90;99.90;;;;;;4978324;28;20042;-75
2023/03/27 04:44:06;;;;;;;14.02;9.27;;;9.90;99.90;;;;;;4977566;28;20046;-74
2023/03/27 04:46:34;;;;;;;34.35;12.20;;;9.90;99.90;;;;;;4981428;28;20050;-74
2023/03/27 04:49:09;;;;;;;20.05;12.73;;;9.90;99.90;;;;;;4986183;28;20043;-73
2023/03/27 04:51:46;;;;;;;25.70;18.40;;;9.90;99.90;;;;;;4982014;28;20046;-73
2023/03/27 04:54:14;;;;;;;23.52;17.75;;;9.90;99.90;;;;;;4982147;28;20042;-74
2023/03/27 04:56:45;;;;;;;32.70;15.57;;;10.00;99.90;;;;;;4983104;28;20046;-73
2023/03/27 04:59:14;;;;;;;33.58;23.63;;;10.00;99.90;;;;;;4980299;28;20047;-73
2023/03/27 05:01:42;;;;;;;31.52;22.65;;;9.90;99.90;;;;;;4983017;28;20043;-74
2023/03/27 05:04:46;;;;;;;66.40;42.58;;;9.90;99.90;;;;;;4981716;28;20087;-73
2023/03/27 05:07:18;;;;;;;45.70;29.80;;;9.80;99.90;;;;;;4981934;28;20053;-75
2023/03/27 05:09:47;;;;;;;37.22;23.85;;;9.80;99.90;;;;;;4997829;28;20078;-74
2023/03/27 05:12:14;;;;;;;33.38;21.33;;;9.80;99.90;;;;;;4985590;28;20134;-73
2023/03/27 05:14:49;;;;;;;28.00;19.97;;;9.90;99.90;;;;;;4986019;28;20406;-76
2023/03/27 05:17:39;;;;;;;38.63;23.65;;;9.90;99.90;;;;;;4982846;28;20490;-73
2023/03/27 05:20:13;;;;;;;33.20;22.27;;;9.80;99.90;;;;;;4976420;28;20039;-72
2023/03/27 05:22:41;;;;;;;27.70;18.83;;;9.80;99.90;;;;;;4975049;28;20043;-74
2023/03/27 05:25:29;;;;;;;24.88;15.43;;;9.80;99.90;;;;;;4996184;28;20043;-73
2023/03/27 05:27:59;;;;;;;22.40;15.90;;;9.90;99.90;;;;;;4980123;28;20042;-73
2023/03/27 05:30:31;;;;;;;29.35;17.65;;;9.80;99.90;;;;;;4980920;28;20049;-73
2023/03/27 05:33:16;;;;;;;28.17;17.30;;;9.80;99.90;;;;;;4996379;28;20047;-74
2023/03/27 05:35:46;;;;;;;34.63;21.50;;;9.80;99.90;;;;;;4973232;28;20046;-74
2023/03/27 05:38:14;;;;;;;35.08;21.08;;;9.70;99.90;;;;;;4980254;28;20042;-75
2023/03/27 05:41:08;;;;;;;30.08;20.17;;;9.80;99.90;;;;;;4976272;28;20039;-74
2023/03/27 05:43:40;;;;;;;27.95;18.88;;;9.80;99.90;;;;;;4974885;28;20585;-73
2023/03/27 05:46:08;;;;;;;30.25;18.67;;;9.90;99.90;;;;;;4979487;28;20035;-73
2023/03/27 05:48:37;;;;;;;32.15;21.15;;;9.90;99.90;;;;;;4978877;28;20097;-74
2023/03/27 05:51:08;;;;;;;24.02;17.00;;;9.90;99.90;;;;;;4976669;28;20111;-74
2023/03/27 05:53:38;;;;;;;26.13;17.77;;;10.00;99.90;;;;;;4978422;28;20113;-75
2023/03/27 05:56:23;;;;;;;29.83;21.52;;;10.10;99.90;;;;;;4981823;28;20039;-73
2023/03/27 05:59:01;;;;;;;24.55;16.58;;;10.20;99.90;;;;;;4981477;28;20051;-74
2023/03/27 06:01:30;;;;;;;35.55;25.60;;;10.10;99.90;;;;;;4967245;28;20050;-74
2023/03/27 06:03:59;;;;;;;36.83;25.98;;;10.20;99.90;;;;;;4967410;28;20049;-74
2023/03/27 06:06:33;;;;;;;27.23;19.73;;;10.30;99.90;;;;;;4959951;28;20458;-73
2023/03/27 06:09:02;;;;;;;32.08;24.15;;;10.30;99.90;;;;;;4960436;28;20146;-74
2023/03/27 06:11:31;;;;;;;30.55;21.60;;;10.50;99.90;;;;;;4977488;28;20054;-73
2023/03/27 06:13:59;;;;;;;41.90;29.13;;;10.30;99.90;;;;;;4977081;28;20503;-74
2023/03/27 06:16:40;;;;;;;32.35;24.27;;;10.60;99.90;;;;;;4973998;28;20510;-74
2023/03/27 06:19:26;;;;;;;26.40;18.05;;;10.60;99.90;;;;;;4978856;28;20062;-73
2023/03/27 06:21:55;;;;;;;27.77;22.02;;;10.60;99.90;;;;;;4980126;28;20129;-73
2023/03/27 06:24:23;;;;;;;28.75;21.00;;;10.50;99.90;;;;;;4975089;28;20067;-74
2023/03/27 06:26:51;;;;;;;24.88;17.77;;;10.60;99.90;;;;;;4958766;28;20090;-74
2023/03/27 06:29:20;;;;;;;22.38;16.75;;;10.70;99.90;;;;;;4980603;28;20113;-74
2023/03/27 06:31:51;;;;;;;25.42;17.33;;;10.90;99.90;;;;;;4982287;28;20064;-75
2023/03/27 06:34:24;;;;;;;26.00;18.60;;;11.00;99.90;;;;;;4984813;28;20153;-74
2023/03/27 06:37:09;;;;;;;21.80;17.67;;;11.20;99.90;;;;;;4979779;28;20050;-75
2023/03/27 06:39:41;;;;;;;24.77;18.75;;;11.30;99.90;;;;;;4973807;28;20070;-73
2023/03/27 06:42:09;;;;;;;19.92;16.15;;;11.40;99.90;;;;;;4961904;28;20051;-74
2023/03/27 06:44:59;;;;;;;20.98;16.20;;;11.50;99.90;;;;;;4975688;28;20094;-74
2023/03/27 06:47:49;;;;;;;22.60;17.70;;;11.40;99.90;;;;;;4966300;28;20050;-75
2023/03/27 06:50:25;;;;;;;20.40;15.20;;;11.50;99.90;;;;;;4981937;28;20054;-79
2023/03/27 06:52:58;;;;;;;22.70;17.40;;;11.50;99.90;;;;;;4984381;28;20285;-78
2023/03/27 06:55:39;;;;;;;28.67;21.23;;;11.70;99.90;;;;;;4997449;28;20051;-74
2023/03/27 06:58:08;;;;;;;20.85;15.27;;;11.80;99.90;;;;;;4996665;28;20050;-75
2023/03/27 07:00:38;;;;;;;19.85;15.23;;;11.90;99.90;;;;;;4978519;28;20521;-76
2023/03/27 07:03:19;;;;;;;18.75;13.32;;;11.90;99.90;;;;;;4979381;28;20065;-76
2023/03/27 07:06:09;;;;;;;16.73;11.93;;;11.70;99.90;;;;;;4990282;28;25574;-74
2023/03/27 07:08:58;;;;;;;16.90;12.00;;;11.80;99.90;;;;;;4979527;23;20447;-72
2023/03/27 07:11:26;;;;;;;18.42;13.57;;;11.80;99.90;;;;;;4986542;28;20103;-73
2023/03/27 07:13:56;;;;;;;20.35;14.52;;;12.00;99.90;;;;;;4962207;28;20474;-72
2023/03/27 07:16:27;;;;;;;22.30;14.55;;;12.20;99.90;;;;;;4966268;28;20519;-72
2023/03/27 07:18:56;;;;;;;24.92;16.92;;;12.60;99.90;;;;;;4988406;28;20055;-72
2023/03/27 07:21:24;;;;;;;19.58;14.63;;;12.80;99.90;;;;;;4961745;28;20055;-73
2023/03/27 07:23:51;;;;;;;22.42;14.63;;;13.20;99.90;;;;;;4985920;28;20047;-73
2023/03/27 07:26:31;;;;;;;19.10;14.35;;;13.00;99.90;;;;;;4961124;28;20050;-71
2023/03/27 07:29:04;;;;;;;19.58;15.13;;;13.00;99.90;;;;;;4961781;28;20054;-73
2023/03/27 07:31:32;;;;;;;23.52;16.70;;;12.90;99.90;;;;;;4961215;28;20484;-71
2023/03/27 07:33:59;;;;;;;23.98;17.92;;;12.70;99.90;;;;;;4960422;28;20146;-72
2023/03/27 07:36:47;;;;;;;30.25;21.30;;;12.80;99.90;;;;;;4963190;28;20050;-72
2023/03/27 07:39:15;;;;;;;30.85;21.23;;;13.00;99.90;;;;;;4961846;28;20047;-72
2023/03/27 07:41:46;;;;;;;29.35;21.45;;;13.10;99.90;;;;;;4986330;28;20043;-75
2023/03/27 07:44:26;;;;;;;29.83;20.75;;;13.00;99.90;;;;;;4985801;28;20044;-72
2023/03/27 07:46:59;;;;;;;26.08;19.42;;;13.00;99.90;;;;;;4959555;28;20078;-71
2023/03/27 07:49:27;;;;;;;31.05;23.73;;;13.10;99.90;;;;;;4961612;28;20418;-71
2023/03/27 07:51:55;;;;;;;29.92;21.17;;;13.10;99.90;;;;;;4960548;28;20075;-71
2023/03/27 07:54:23;;;;;;;20.13;12.98;;;13.10;99.90;;;;;;4985342;28;20050;-71
2023/03/27 07:56:55;;;;;;;26.17;16.60;;;13.10;99.90;;;;;;4985676;28;20521;-72
2023/03/27 07:59:32;;;;;;;21.25;12.98;;;13.00;99.90;;;;;;4961913;28;20070;-71
2023/03/27 08:02:09;;;;;;;15.35;8.90;;;13.00;99.90;;;;;;4986538;28;20053;-72
2023/03/27 08:04:39;;;;;;;10.20;5.82;;;12.30;99.90;;;;;;4961217;28;20046;-73
2023/03/27 08:07:10;;;;;;;7.63;4.82;;;11.40;99.90;;;;;;4962822;28;20046;-73
2023/03/27 08:09:40;;;;;;;7.93;3.80;;;10.70;99.90;;;;;;4988978;28;20079;-73
2023/03/27 08:12:10;;;;;;;7.20;3.33;;;10.20;99.90;;;;;;4969200;28;20078;-73
2023/03/27 08:14:41;;;;;;;5.22;2.88;;;10.00;99.90;;;;;;4998218;28;20047;-72
2023/03/27 08:17:18;;;;;;;6.85;4.20;;;9.80;99.90;;;;;;4990641;28;20507;-73
2023/03/27 08:19:46;;;;;;;6.85;5.25;;;9.70;99.90;;;;;;4962914;28;20097;-73
2023/03/27 08:22:15;;;;;;;9.55;5.72;;;9.70;99.90;;;;;;4963262;28;20613;-71
2023/03/27 08:25:10;;;;;;;8.57;4.70;;;9.70;99.90;;;;;;4949034;28;20043;-74
2023/03/27 08:27:39;;;;;;;10.00;7.28;;;9.80;99.90;;;;;;4988394;28;20047;-73
2023/03/27 08:30:08;;;;;;;13.80;8.43;;;9.70;99.90;;;;;;4986015;28;20055;-72
2023/03/27 08:32:40;;;;;;;8.80;6.78;;;9.70;99.90;;;;;;4985959;28;20054;-73
2023/03/27 08:35:10;;;;;;;10.65;7.63;;;9.60;99.90;;;;;;4961051;28;20047;-72
2023/03/27 08:37:38;;;;;;;10.80;7.88;;;9.70;99.90;;;;;;4985855;28;20043;-72
2023/03/27 08:40:38;;;;;;;7.53;5.53;;;9.70;99.90;;;;;;4975864;28;20052;-73
2023/03/27 08:43:27;;;;;;;7.67;4.83;;;9.80;99.90;;;;;;4960322;28;20049;-72
2023/03/27 08:46:01;;;;;;;5.95;3.88;;;9.70;99.90;;;;;;4959073;28;20053;-73
2023/03/27 08:48:35;;;;;;;8.38;3.90;;;9.70;99.90;;;;;;4974364;28;20049;-74
2023/03/27 08:51:07;;;;;;;7.25;4.82;;;9.70;99.90;;;;;;4958549;28;20051;-72
2023/03/27 08:53:41;;;;;;;4.35;2.53;;;9.60;99.90;;;;;;4958809;28;20544;-72
2023/03/27 08:56:13;;;;;;;;;;;9.60;99.90;;;;;;4963066;28;20051;-72
2023/03/27 08:58:44;;;;;;;3.10;1.67;;;9.60;99.90;;;;;;4960520;28;20009;-73
2023/03/27 09:01:25;;;;;;;4.30;2.10;;;9.50;99.90;;;;;;4959113;28;20074;-73
2023/03/27 09:04:00;;;;;;;4.57;2.75;;;9.50;99.90;;;;;;4983767;28;20064;-74
2023/03/27 09:06:36;;;;;;;;;;;9.50;99.90;;;;;;4960275;28;20047;-71
2023/03/27 09:09:10;;;;;;;4.25;2.70;;;9.50;99.90;;;;;;4959014;28;20017;-72
2023/03/27 09:11:50;;;;;;;4.47;2.65;;;9.50;99.90;;;;;;4964031;28;20039;-72
2023/03/27 09:14:29;;;;;;;5.43;3.05;;;9.50;99.90;;;;;;4960580;28;20050;-73
2023/03/27 09:17:03;;;;;;;4.93;3.03;;;9.40;99.90;;;;;;4960118;28;20047;-72
2023/03/27 09:19:43;;;;;;;6.85;3.35;;;9.30;99.90;;;;;;4976372;28;20539;-74
2023/03/27 09:22:16;;;;;;;5.32;3.40;;;9.50;99.90;;;;;;4984109;28;20063;-72
2023/03/27 09:25:22;;;;;;;8.35;3.53;;;9.70;99.90;;;;;;4949555;28;20138;-72
2023/03/27 09:28:19;;;;;;;6.70;4.35;;;10.00;99.90;;;;;;4958961;28;20042;-73
2023/03/27 09:31:28;;;;;;;9.90;5.22;;;10.20;99.90;;;;;;4960304;28;20043;-72
2023/03/27 09:34:06;;;;;;;6.88;3.72;;;10.30;99.90;;;;;;4958315;28;20577;-74
2023/03/27 09:36:35;;;;;;;6.50;3.90;;;10.40;99.90;;;;;;4959854;28;20050;-73
2023/03/27 09:39:07;;;;;;;4.95;2.90;;;10.30;99.90;;;;;;4986532;28;20061;-73
2023/03/27 09:41:40;;;;;;;7.85;5.22;;;10.50;99.90;;;;;;4959749;28;20050;-73
2023/03/27 09:44:12;;;;;;;7.03;3.53;;;10.80;99.90;;;;;;4955154;28;20039;-72
2023/03/27 09:46:47;;;;;;;6.45;3.70;;;11.20;99.90;;;;;;4962562;28;20058;-72
2023/03/27 09:49:17;;;;;;;8.90;5.47;;;11.40;99.90;;;;;;4986497;28;20066;-72
2023/03/27 09:51:50;;;;;;;5.28;3.58;;;11.50;99.90;;;;;;4987016;28;20039;-73
2023/03/27 09:54:52;;;;;;;7.03;3.95;;;11.60;99.90;;;;;;4960541;28;20071;-72
2023/03/27 09:57:27;;;;;;;8.13;4.03;;;11.60;99.90;;;;;;4965590;28;20142;-72
2023/03/27 10:00:00;;;;;;;5.32;2.97;;;11.40;99.90;;;;;;4969404;28;20043;-73
2023/03/27 10:02:30;;;;;;;6.22;3.00;;;11.00;99.90;;;;;;4974902;28;20042;-74
2023/03/27 10:05:00;;;;;;;8.13;3.40;;;10.50;99.90;;;;;;4962460;28;20039;-73
2023/03/27 10:07:33;;;;;;;4.50;2.70;;;10.20;99.90;;;;;;4983525;28;20630;-74
2023/03/27 10:10:10;;;;;;;7.57;3.67;;;9.90;99.90;;;;;;4964355;28;20047;-72
2023/03/27 10:12:59;;;;;;;10.43;4.55;;;9.90;99.90;;;;;;4973180;28;20061;-73
2023/03/27 10:15:37;;;;;;;5.47;3.10;;;10.10;99.90;;;;;;4972950;28;20043;-73
2023/03/27 10:18:20;;;;;;;4.15;1.83;;;10.30;99.90;;;;;;4976584;28;20124;-73
2023/03/27 10:20:51;;;;;;;4.88;3.05;;;10.60;99.90;;;;;;4960045;28;20043;-71
2023/03/27 10:23:25;;;;;;;3.35;2.10;;;11.10;99.90;;;;;;4959013;28;20042;-71
2023/03/27 10:25:57;;;;;;;7.32;3.08;;;11.10;99.90;;;;;;4958576;28;20055;-72
2023/03/27 10:28:29;;;;;;;3.58;1.65;;;11.10;99.90;;;;;;4983263;28;20051;-73
2023/03/27 10:31:28;;;;;;;6.45;2.60;;;11.00;99.90;;;;;;4958643;28;20137;-72
2023/03/27 10:34:32;;;;;;;5.88;3.55;;;10.90;99.90;;;;;;4973987;28;20051;-73
2023/03/27 10:37:20;;;;;;;7.75;4.40;;;10.80;99.90;;;;;;4962685;28;20054;-73
2023/03/27 10:39:53;;;;;;;5.18;3.22;;;10.80;99.90;;;;;;4959652;28;20049;-71
2023/03/27 10:42:42;;;;;;;6.45;2.85;;;10.70;99.90;;;;;;4984988;28;20039;-73
2023/03/27 10:45:16;;;;;;;6.30;3.38;;;10.70;99.90;;;;;;4965038;28;20092;-72
2023/03/27 10:47:48;;;;;;;6.70;3.78;;;10.60;99.90;;;;;;4959579;28;20130;-72
2023/03/27 10:50:21;;;;;;;11.27;6.88;;;10.70;99.90;;;;;;4977048;28;20055;-73
2023/03/27 10:53:00;;;;;;;11.70;6.70;;;10.50;99.90;;;;;;4963153;28;20047;-77
2023/03/27 10:56:01;;;;;;;10.80;5.03;;;10.60;99.90;;;;;;4963304;28;20071;-73
2023/03/27 10:58:39;;;;;;;12.05;7.88;;;10.60;99.90;;;;;;4981472;28;20043;-74
2023/03/27 11:01:12;;;;;;;9.80;5.85;;;10.90;99.90;;;;;;4963881;28;20051;-71
2023/03/27 11:03:51;;;;;;;10.23;6.45;;;11.30;99.90;;;;;;4974983;28;20086;-72
2023/03/27 11:06:27;;;;;;;5.45;3.65;;;11.60;99.90;;;;;;4959142;28;20403;-73
2023/03/27 11:09:04;;;;;;;8.70;5.57;;;11.70;99.90;;;;;;4981087;28;20058;-72
2023/03/27 11:11:38;;;;;;;11.43;7.40;;;11.60;99.90;;;;;;4981704;28;20053;-72
2023/03/27 11:14:11;;;;;;;12.90;8.45;;;11.50;99.90;;;;;;4956849;28;20039;-72
2023/03/27 11:16:44;;;;;;;12.02;7.07;;;11.20;99.90;;;;;;4981959;28;20574;-78
2023/03/27 11:19:53;;;;;;;14.60;6.70;;;11.00;99.90;;;;;;4960638;28;20047;-75
2023/03/27 11:22:45;;;;;;;12.57;6.18;;;10.70;99.90;;;;;;4960111;28;20060;-72
2023/03/27 11:25:33;;;;;;;11.68;5.35;;;10.70;99.90;;;;;;4981648;28;20058;-78
2023/03/27 11:28:09;;;;;;;10.23;4.70;;;10.90;99.90;;;;;;4982833;28;20035;-76
2023/03/27 11:30:40;;;;;;;;;;;10.90;99.90;;;;;;4981480;28;20031;-73
2023/03/27 11:33:31;;;;;;;9.27;4.60;;;10.90;99.90;;;;;;4956203;28;19921;-73
2023/03/27 11:36:17;;;;;;;12.75;4.65;;;11.00;99.90;;;;;;4957091;28;20051;-72
2023/03/27 11:38:57;;;;;;;11.82;5.82;;;11.00;99.90;;;;;;4954905;28;20114;-73
2023/03/27 11:41:25;;;;;;;;;;;11.10;99.90;;;;;;4946946;29;20075;-73
2023/03/27 11:43:53;;;;;;;10.25;5.00;;;11.20;99.90;;;;;;4952641;28;20390;-74
2023/03/27 11:46:54;;;;;;;8.38;4.85;;;11.20;99.90;;;;;;4959353;28;20126;-74
2023/03/27 11:49:37;;;;;;;8.32;5.55;;;11.00;99.90;;;;;;4963950;28;20054;-76
2023/03/27 11:52:13;;;;;;;14.90;6.05;;;10.80;99.90;;;;;;4964640;28;20061;-78
2023/03/27 11:54:54;;;;;;;22.38;12.73;;;10.70;99.90;;;;;;4958589;28;20039;-78
2023/03/27 11:57:26;;;;;;;13.93;8.35;;;10.60;99.90;;;;;;4983420;28;20058;-79
2023/03/27 12:00:11;;;;;;;9.93;6.53;;;10.70;99.90;;;;;;4960290;28;20055;-78
2023/03/27 12:03:26;;;;;;;6.55;4.13;;;11.00;99.90;;;;;;4965098;28;20067;-78
2023/03/27 12:06:04;;;;;;;8.23;4.50;;;10.90;99.90;;;;;;4956974;28;20058;-77
2023/03/27 12:08:53;;;;;;;8.52;4.95;;;10.90;99.90;;;;;;4965558;28;20077;-77
2023/03/27 12:11:24;;;;;;;8.50;4.22;;;10.90;99.90;;;;;;4976972;28;20047;-79
2023/03/27 12:14:23;;;;;;;7.70;4.55;;;11.00;99.90;;;;;;4979338;28;20054;-75
2023/03/27 12:17:12;;;;;;;13.20;4.88;;;10.90;99.90;;;;;;4984138;28;20105;-83
2023/03/27 12:20:26;;;;;;;10.80;6.30;;;10.60;99.90;;;;;;4988555;28;20055;-78
2023/03/27 12:23:18;;;;;;;14.05;8.10;;;10.30;99.90;;;;;;4961697;28;20495;-76
2023/03/27 12:26:45;;;;;;;10.10;6.45;;;10.10;99.90;;;;;;4904448;28;20048;-79
2023/03/27 12:29:54;;;;;;;8.70;4.78;;;10.20;99.90;;;;;;4957545;28;20411;-79
2023/03/27 12:32:43;;;;;;;7.72;4.85;;;10.20;99.90;;;;;;4958834;28;20141;-78
2023/03/27 12:35:13;;;;;;;10.82;6.43;;;10.30;99.90;;;;;;4960069;28;20051;-75
2023/03/27 12:37:49;;;;;;;11.77;7.15;;;10.30;99.90;;;;;;4959354;28;20495;-77
2023/03/27 12:40:29;;;;;;;11.20;6.85;;;10.50;99.90;;;;;;4986989;28;20155;-76
2023/03/27 12:43:10;;;;;;;12.00;7.57;;;10.60;99.90;;;;;;4960747;28;20467;-78
2023/03/27 12:46:05;;;;;;;10.52;7.65;;;10.60;99.90;;;;;;4962939;28;20043;-76
2023/03/27 12:48:33;;;;;;;12.00;7.40;;;10.60;99.90;;;;;;4984070;28;20055;-79
2023/03/27 12:51:11;;;;;;;10.52;6.82;;;10.80;99.90;;;;;;4960637;28;20121;-79
2023/03/27 12:53:53;;;;;;;11.20;7.00;;;10.90;99.90;;;;;;4958886;28;20051;-78
2023/03/27 12:56:32;;;;;;;11.95;6.57;;;10.90;99.90;;;;;;4966661;28;20079;-77
2023/03/27 12:59:00;;;;;;;12.07;7.57;;;10.90;99.90;;;;;;4962165;28;20057;-75
2023/03/27 13:02:07;;;;;;;11.50;7.55;;;10.70;99.90;;;;;;4965536;28;20047;-78
2023/03/27 13:05:06;;;;;;;15.27;12.07;;;10.70;99.90;;;;;;4960689;28;20035;-78
2023/03/27 13:07:38;;;;;;;12.15;8.95;;;10.80;99.90;;;;;;4984979;28;20047;-76
2023/03/27 13:10:27;;;;;;;16.23;9.75;;;10.80;99.90;;;;;;4984854;28;20047;-77
2023/03/27 13:13:15;;;;;;;15.50;10.63;;;10.80;99.90;;;;;;4958765;28;20070;-78
2023/03/27 13:16:10;;;;;;;12.57;9.82;;;10.60;99.90;;;;;;4976032;28;20055;-76
2023/03/27 13:19:11;;;;;;;12.73;8.18;;;10.60;99.90;;;;;;4976187;28;20070;-77
2023/03/27 13:22:12;;;;;;;10.27;5.90;;;10.50;99.90;;;;;;4961331;28;20067;-78
2023/03/27 13:24:56;;;;;;;8.88;5.32;;;10.40;99.90;;;;;;4975427;28;20122;-76
2023/03/27 13:27:41;;;;;;;8.50;5.03;;;10.30;99.90;;;;;;4958758;28;20102;-73
2023/03/27 13:30:41;;;;;;;7.82;4.68;;;10.00;99.90;;;;;;4958980;28;20047;-71